الصفحة الرئيسية
METAR-TAF:

METAR-TAF

مطار :

مطار الكويت الدولي

مدينة الكويت, الكويت

دائرة عرض: 29-13N, خط طول: 047-59E, ارتفاع: 55 متر

مراقبة الطقس الحالي

تاريخ ووقت الإصدار 41 دقيقة قبل الساعة 11:00UTC
ريح 7 عقدة من الشمال/الشمال الشرقي
درجة الحرارة 43°درجة مئوية
الرطوبة 12%
ضغط 1006 hPa
الرؤية 10 كم أو أكثر
الغيوم لا تقل 1500 م ولا وجود لمزنة ركامية السحاب الأسود

METAR: OKBK 271100Z 03007KT CAVOK 43/07 Q1006 NOSIG

زمن: 14:41 (11:41 UTC)

توقعات

تاريخ ووقت الإصدار 8ساعات و 31 دقيقة قبل الساعة 03:10UTC
التوقعات صالحة من27 الساعة 03 UTC إلى 28 الساعة 06 UTC
ريح 12 عقدة من الشمال
الرؤية: 7000 متر
مؤقت
من 27 الساعة 03 UTC إلى 27 الساعة 09 UTC
ريح 3 عقدةمن اتجاهات متغيرة
الرؤية: 3500 متر
العجاج

TAF: OKBK 270310Z 2703/2806 35012KT 7000 NSC TEMPO 2703/2709 VRB03KT 3500 HZ

أرصاد الطقس والتوقعات من أكثر من 4000 مطار (تقارير الطقس للمطار METAR والتنبؤ بالطقس بالمطارTAF).

المحطات المتاحة هي النقط الصفراء والحمراء على الخريطة.

حرك المؤشر فوق النقطة لمعرفة اسم المحطة.

ثم انقر لمعرفة أرصاد وتوقعات الطقس.

لتغيير الخارطة: اضغط على الأزرار الخضراء مع رمز الصليب الأسود للتكبير. على الزر الأخضر مع شرطة للتصغير، أو على الأسهم الخضراء للخرائط المجاورة.


METAR-TAF: